createdAt,value
2018-09-03T00:00:37.502Z,5.00
2018-09-03T00:03:06.124Z,5.73
2018-09-03T00:05:34.603Z,5.00
2018-09-03T00:30:57.222Z,4.87
2018-09-03T00:33:30.917Z,5.73
2018-09-03T00:37:05.154Z,5.10
2018-09-03T00:39:38.898Z,5.63
2018-09-03T00:42:12.543Z,4.80
2018-09-03T00:44:46.364Z,4.40
2018-09-03T00:47:14.897Z,7.37
2018-09-03T00:49:43.401Z,4.40
2018-09-03T00:52:11.822Z,4.87
2018-09-03T00:54:40.393Z,4.77
2018-09-03T00:57:09.088Z,7.63
2018-09-03T00:59:37.541Z,5.03
2018-09-03T01:02:06.058Z,4.17
2018-09-03T01:04:34.519Z,6.63
2018-09-03T01:07:02.953Z,4.10
2018-09-03T01:09:31.517Z,9.87
2018-09-03T01:11:59.970Z,5.63
2018-09-03T01:14:28.417Z,5.53
2018-09-03T01:16:56.850Z,8.40
2018-09-03T01:19:25.301Z,4.40
2018-09-03T01:21:53.769Z,6.27
2018-09-03T01:24:22.298Z,5.93
2018-09-03T01:26:50.750Z,6.33
2018-09-03T01:29:19.188Z,11.87
2018-09-03T01:31:47.671Z,7.30
2018-09-03T01:34:16.218Z,5.07
2018-09-03T01:36:44.657Z,4.57
2018-09-03T01:39:13.126Z,7.03
2018-09-03T01:41:41.552Z,4.90
2018-09-03T01:44:09.983Z,4.90
2018-09-03T01:46:38.451Z,5.23
2018-09-03T01:49:06.913Z,5.83
2018-09-03T01:51:35.351Z,6.10
2018-09-03T01:54:03.821Z,5.47
2018-09-03T01:56:32.242Z,6.33
2018-09-03T01:59:00.692Z,10.03
2018-09-03T02:01:29.329Z,7.07
2018-09-03T02:03:57.773Z,7.20
2018-09-03T02:06:26.206Z,5.67
2018-09-03T02:08:54.661Z,7.33
2018-09-03T02:11:23.101Z,10.03
2018-09-03T02:13:51.590Z,7.70
2018-09-03T02:16:20.113Z,6.00
2018-09-03T02:18:48.551Z,9.17
2018-09-03T02:21:17.047Z,5.60
2018-09-03T02:23:45.545Z,6.83
2018-09-03T02:26:14.090Z,6.63
2018-09-03T02:28:43.406Z,8.77
2018-09-03T02:31:11.849Z,6.43
2018-09-03T02:33:40.298Z,6.10
2018-09-03T02:36:08.750Z,6.37
2018-09-03T02:38:37.218Z,6.37
2018-09-03T02:41:05.949Z,8.43
2018-09-03T02:44:03.034Z,6.90
2018-09-03T02:46:31.425Z,5.97
2018-09-03T02:48:59.860Z,5.23
2018-09-03T02:51:28.342Z,7.03
2018-09-03T02:53:56.773Z,5.77
2018-09-03T02:56:25.202Z,5.50
2018-09-03T02:58:53.656Z,7.33
2018-09-03T03:01:22.124Z,7.70
2018-09-03T03:03:50.573Z,21.67
2018-09-03T03:06:19.084Z,7.03
2018-09-03T03:09:04.808Z,7.90
2018-09-03T03:11:33.303Z,7.50
2018-09-03T03:14:01.767Z,7.50
2018-09-03T03:16:30.212Z,17.23
2018-09-03T03:18:58.688Z,10.47
2018-09-03T03:21:27.123Z,6.70
2018-09-03T03:23:55.582Z,7.10
2018-09-03T03:26:24.033Z,15.73
2018-09-03T03:28:52.463Z,6.47
2018-09-03T03:31:20.909Z,6.90
2018-09-03T03:33:49.427Z,12.60
2018-09-03T03:36:17.883Z,7.60
2018-09-03T03:38:46.333Z,8.63
2018-09-03T03:41:14.821Z,8.00
2018-09-03T03:43:43.297Z,9.07
2018-09-03T03:46:11.760Z,7.83
2018-09-03T03:48:40.232Z,7.70
2018-09-03T03:51:08.676Z,7.67
2018-09-03T03:53:37.106Z,8.23
2018-09-03T03:56:05.570Z,7.10
2018-09-03T03:58:34.052Z,16.53
2018-09-03T04:01:02.476Z,8.83
2018-09-03T04:03:30.943Z,8.77
2018-09-03T04:05:59.397Z,9.37
2018-09-03T04:08:27.840Z,8.47
2018-09-03T04:10:56.306Z,9.03
2018-09-03T04:13:24.790Z,18.53
2018-09-03T04:15:53.227Z,8.97
2018-09-03T04:18:21.696Z,10.27
2018-09-03T04:20:50.131Z,13.30
2018-09-03T04:23:18.773Z,11.57
2018-09-03T04:25:47.126Z,8.10
2018-09-03T04:28:15.634Z,9.10
2018-09-03T04:30:44.121Z,10.00
2018-09-03T04:33:12.640Z,27.03
2018-09-03T04:35:41.096Z,26.37
2018-09-03T04:38:09.561Z,16.77
2018-09-03T04:40:38.061Z,13.43
2018-09-03T04:43:06.503Z,12.27
2018-09-03T04:45:34.945Z,12.17
2018-09-03T04:48:03.442Z,17.40
2018-09-03T04:50:31.903Z,15.73
2018-09-03T04:53:00.469Z,12.07
2018-09-03T04:55:28.940Z,9.43
2018-09-03T04:57:57.384Z,10.80
2018-09-03T05:00:25.817Z,11.40
2018-09-03T05:02:54.276Z,12.73
2018-09-03T05:05:22.989Z,11.40
2018-09-03T05:07:51.439Z,9.50
2018-09-03T05:10:19.898Z,15.63
2018-09-03T05:12:49.762Z,23.77
2018-09-03T05:15:18.289Z,13.63
2018-09-03T05:17:46.783Z,10.17
2018-09-03T05:20:15.406Z,12.27
2018-09-03T05:22:43.827Z,10.43
2018-09-03T05:25:12.377Z,10.93
2018-09-03T05:27:40.933Z,36.13
2018-09-03T05:30:09.466Z,17.77
2018-09-03T05:32:38.332Z,10.80
2018-09-03T05:35:06.831Z,16.03
2018-09-03T05:37:35.271Z,18.53
2018-09-03T05:40:03.881Z,11.53
2018-09-03T05:42:32.316Z,11.20
2018-09-03T05:45:00.784Z,9.77
2018-09-03T05:47:29.247Z,10.13
2018-09-03T05:49:57.754Z,10.50
2018-09-03T05:52:26.178Z,20.80
2018-09-03T05:54:54.696Z,12.80
2018-09-03T05:57:23.136Z,22.53
2018-09-03T05:59:51.581Z,10.70
2018-09-03T06:02:20.043Z,11.00
2018-09-03T06:04:48.551Z,26.40
2018-09-03T06:07:16.958Z,19.40
2018-09-03T06:09:45.451Z,12.60
2018-09-03T06:12:13.926Z,15.60
2018-09-03T06:14:42.375Z,13.90
2018-09-03T06:17:10.842Z,14.50
2018-09-03T06:19:39.287Z,12.10
2018-09-03T06:22:07.734Z,12.40
2018-09-03T06:24:36.203Z,23.50
2018-09-03T06:27:04.758Z,15.00
2018-09-03T06:29:33.212Z,14.43
2018-09-03T06:32:01.950Z,16.83
2018-09-03T06:34:30.395Z,19.67
2018-09-03T06:36:59.070Z,15.20
2018-09-03T06:39:27.548Z,15.07
2018-09-03T06:41:55.989Z,28.17
2018-09-03T06:44:24.444Z,18.03
2018-09-03T06:46:52.945Z,15.43
2018-09-03T06:49:21.436Z,18.87
2018-09-03T06:51:49.904Z,46.20
2018-09-03T06:54:18.423Z,14.00
2018-09-03T06:56:46.882Z,15.80
2018-09-03T06:59:15.343Z,13.43
2018-09-03T07:01:43.915Z,15.40
2018-09-03T07:04:12.367Z,17.20
2018-09-03T07:06:40.841Z,22.63
2018-09-03T07:09:10.378Z,27.33
2018-09-03T07:11:38.932Z,14.50
2018-09-03T07:14:07.387Z,15.33
2018-09-03T07:16:35.934Z,21.00
2018-09-03T07:19:04.460Z,22.73
2018-09-03T07:21:32.922Z,19.87
2018-09-03T07:24:01.415Z,13.83
2018-09-03T07:26:29.931Z,14.67
2018-09-03T07:28:58.494Z,67.40
2018-09-03T07:31:27.004Z,49.60
2018-09-03T07:33:55.458Z,26.73
2018-09-03T07:36:23.893Z,21.37
2018-09-03T07:38:52.364Z,17.27
2018-09-03T07:41:20.906Z,35.53
2018-09-03T07:43:49.337Z,13.70
2018-09-03T07:46:18.011Z,13.80
2018-09-03T07:48:46.512Z,23.77
2018-09-03T07:51:14.960Z,13.77
2018-09-03T07:53:43.439Z,16.63
2018-09-03T07:56:11.888Z,13.87
2018-09-03T07:58:40.345Z,14.83
2018-09-03T08:01:08.957Z,14.80
2018-09-03T08:03:37.365Z,14.80
2018-09-03T08:06:06.447Z,13.37
2018-09-03T08:08:34.917Z,16.57
2018-09-03T08:11:03.458Z,13.87
2018-09-03T08:13:38.947Z,16.47
2018-09-03T08:16:07.652Z,15.07
2018-09-03T08:18:36.155Z,19.83
2018-09-03T08:21:05.033Z,16.33
2018-09-03T08:23:33.520Z,19.33
2018-09-03T08:26:02.093Z,20.63
2018-09-03T08:28:30.609Z,14.60
2018-09-03T08:30:59.333Z,20.13
2018-09-03T08:33:27.867Z,16.40
2018-09-03T08:35:56.663Z,14.40
2018-09-03T08:38:25.102Z,22.37
2018-09-03T08:40:53.668Z,14.80
2018-09-03T08:43:22.320Z,15.27
2018-09-03T08:45:50.781Z,12.83
2018-09-03T08:48:19.228Z,13.50
2018-09-03T08:50:47.697Z,13.47
2018-09-03T08:53:16.217Z,12.40
2018-09-03T08:55:44.644Z,12.60
2018-09-03T08:58:13.133Z,22.53
2018-09-03T09:00:41.629Z,13.50
2018-09-03T09:03:43.096Z,12.80
2018-09-03T09:06:12.012Z,10.50
2018-09-03T09:08:40.510Z,11.20
2018-09-03T09:11:09.605Z,13.53
2018-09-03T09:13:38.061Z,18.27
2018-09-03T09:16:06.557Z,13.73
2018-09-03T09:18:35.063Z,10.63
2018-09-03T09:21:03.492Z,11.43
2018-09-03T09:23:32.000Z,12.37
2018-09-03T09:26:00.422Z,12.90
2018-09-03T09:28:28.970Z,16.60
2018-09-03T09:30:57.458Z,21.00
2018-09-03T09:33:26.046Z,16.70
2018-09-03T09:35:54.562Z,11.90
2018-09-03T09:38:22.991Z,18.23
2018-09-03T09:40:51.699Z,11.73
2018-09-03T09:43:20.180Z,15.17
2018-09-03T09:45:48.613Z,25.30
2018-09-03T09:48:17.058Z,13.70
2018-09-03T09:50:45.531Z,15.13
2018-09-03T09:53:13.996Z,18.03
2018-09-03T09:55:42.456Z,15.70
2018-09-03T09:58:10.929Z,16.30
2018-09-03T10:01:43.530Z,11.00
2018-09-03T10:04:12.014Z,12.00
2018-09-03T10:06:40.447Z,20.47
2018-09-03T10:09:09.044Z,14.77
2018-09-03T10:11:37.507Z,14.43
2018-09-03T10:14:06.286Z,15.00
2018-09-03T10:16:34.784Z,14.17
2018-09-03T10:19:03.227Z,13.13
2018-09-03T10:21:31.718Z,14.50
2018-09-03T10:24:00.200Z,15.50
2018-09-03T10:26:28.648Z,12.53
2018-09-03T10:28:57.164Z,14.13
2018-09-03T10:31:25.953Z,133.40
2018-09-03T10:33:54.641Z,36.37
2018-09-03T10:36:23.110Z,19.20
2018-09-03T10:38:51.693Z,13.43
2018-09-03T10:41:20.151Z,13.47
2018-09-03T10:43:48.672Z,14.33
2018-09-03T10:46:17.130Z,14.83
2018-09-03T10:48:45.575Z,12.90
2018-09-03T10:51:14.009Z,14.10
2018-09-03T10:53:42.503Z,16.33
2018-09-03T10:56:11.016Z,12.90
2018-09-03T10:58:39.436Z,20.90
2018-09-03T11:01:07.933Z,13.90
2018-09-03T11:03:36.418Z,18.70
2018-09-03T11:06:05.215Z,27.33
2018-09-03T11:08:33.704Z,23.93
2018-09-03T11:11:02.230Z,24.50
2018-09-03T11:13:30.652Z,24.57
2018-09-03T11:15:59.116Z,13.70
2018-09-03T11:18:28.776Z,13.27
2018-09-03T11:20:57.330Z,12.13
2018-09-03T11:23:25.944Z,18.10
2018-09-03T11:25:54.429Z,12.00
2018-09-03T11:28:22.892Z,18.40
2018-09-03T11:30:51.418Z,16.03
2018-09-03T11:33:19.900Z,9.73
2018-09-03T11:35:48.504Z,10.70
2018-09-03T11:38:16.963Z,10.43
2018-09-03T11:40:45.430Z,11.53
2018-09-03T11:43:13.880Z,12.17
2018-09-03T11:45:42.367Z,10.70
2018-09-03T11:48:10.928Z,48.70
2018-09-03T11:50:39.371Z,10.80
2018-09-03T11:53:07.866Z,12.13
2018-09-03T11:55:36.333Z,13.63
2018-09-03T11:58:04.886Z,13.30
2018-09-03T12:00:33.501Z,11.30
2018-09-03T12:03:01.939Z,12.10
2018-09-03T12:05:30.402Z,21.10
2018-09-03T12:07:58.916Z,13.27
2018-09-03T12:10:27.384Z,26.60
2018-09-03T12:12:55.846Z,12.87
2018-09-03T12:15:39.651Z,12.33
2018-09-03T12:18:08.117Z,12.73
2018-09-03T12:20:36.595Z,12.20
2018-09-03T12:23:05.495Z,13.63
2018-09-03T12:25:33.982Z,12.27
2018-09-03T12:28:02.462Z,14.63
2018-09-03T12:30:30.930Z,14.60
2018-09-03T12:32:59.404Z,14.27
2018-09-03T12:35:27.958Z,40.40
2018-09-03T12:37:56.488Z,16.37
2018-09-03T12:40:24.973Z,15.57
2018-09-03T12:42:53.467Z,24.90
2018-09-03T12:45:30.071Z,17.23
2018-09-03T12:47:58.545Z,28.63
2018-09-03T12:50:27.024Z,23.77
2018-09-03T12:52:55.619Z,34.03
2018-09-03T12:55:24.177Z,18.80
2018-09-03T12:57:52.614Z,21.50
2018-09-03T13:00:22.136Z,21.80
2018-09-03T13:02:51.149Z,20.43
2018-09-03T13:05:20.492Z,16.30
2018-09-03T13:07:49.294Z,18.83
2018-09-03T13:10:17.882Z,16.43
2018-09-03T13:12:46.689Z,14.73
2018-09-03T13:15:15.159Z,15.60
2018-09-03T13:17:43.956Z,15.27
2018-09-03T13:20:12.827Z,25.87
2018-09-03T13:22:41.646Z,15.00
2018-09-03T13:25:10.108Z,19.33
2018-09-03T13:27:38.591Z,11.33
2018-09-03T13:30:08.085Z,10.00
2018-09-03T13:32:36.530Z,16.00
2018-09-03T13:35:05.010Z,10.80
2018-09-03T13:37:33.871Z,10.23
2018-09-03T13:40:02.322Z,9.80
2018-09-03T13:42:30.863Z,11.60
2018-09-03T13:44:59.290Z,11.63
2018-09-03T13:47:27.757Z,15.00
2018-09-03T13:49:56.304Z,12.93
2018-09-03T13:52:24.845Z,11.07
2018-09-03T13:54:53.400Z,13.20
2018-09-03T13:57:21.861Z,12.57
2018-09-03T13:59:50.379Z,22.40
2018-09-03T14:02:18.861Z,13.00
2018-09-03T14:04:47.386Z,13.10
2018-09-03T14:07:15.936Z,12.47
2018-09-03T14:09:44.515Z,11.60
2018-09-03T14:12:12.951Z,11.80
2018-09-03T14:14:41.443Z,11.30
2018-09-03T14:17:09.990Z,9.97
2018-09-03T14:19:38.497Z,8.77
2018-09-03T14:22:07.095Z,31.37
2018-09-03T14:24:35.540Z,9.23
2018-09-03T14:27:04.000Z,17.53
2018-09-03T14:29:32.490Z,11.73
2018-09-03T14:32:00.959Z,10.97
2018-09-03T14:34:29.414Z,8.90
2018-09-03T14:36:57.987Z,12.60
2018-09-03T14:39:26.448Z,17.87
2018-09-03T14:41:54.907Z,21.43
2018-09-03T14:44:23.479Z,12.73
2018-09-03T14:46:52.067Z,15.93
2018-09-03T14:49:20.580Z,14.60
2018-09-03T14:51:49.123Z,13.67
2018-09-03T14:54:17.576Z,14.33
2018-09-03T14:56:46.077Z,22.47
2018-09-03T14:59:15.527Z,22.77
2018-09-03T15:01:44.007Z,20.67
2018-09-03T15:04:12.683Z,12.63
2018-09-03T15:06:41.105Z,31.43
2018-09-03T15:09:10.768Z,18.90
2018-09-03T15:11:39.242Z,16.67
2018-09-03T15:14:07.726Z,81.90
2018-09-03T15:16:36.173Z,17.67
2018-09-03T15:19:05.711Z,16.50
2018-09-03T15:21:35.239Z,19.13
2018-09-03T15:24:04.312Z,17.03
2018-09-03T15:26:32.817Z,17.00
2018-09-03T15:29:01.296Z,21.63
2018-09-03T15:31:29.756Z,27.73
2018-09-03T15:33:58.291Z,32.30
2018-09-03T15:36:27.119Z,26.33
2018-09-03T15:38:55.613Z,21.93
2018-09-03T15:41:24.179Z,24.93
2018-09-03T15:43:52.691Z,23.63
2018-09-03T15:46:21.343Z,25.87
2018-09-03T15:48:49.803Z,21.93
2018-09-03T15:51:18.331Z,49.33
2018-09-03T15:53:46.851Z,22.13
2018-09-03T15:56:15.348Z,21.60
2018-09-03T15:58:43.852Z,22.87
2018-09-03T16:01:12.316Z,22.37
2018-09-03T16:03:40.980Z,46.40
2018-09-03T16:06:09.533Z,28.30
2018-09-03T16:08:38.015Z,36.83
2018-09-03T16:11:06.470Z,25.43
2018-09-03T16:13:34.950Z,49.13
2018-09-03T16:16:03.409Z,33.20
2018-09-03T16:18:31.920Z,27.47
2018-09-03T16:21:00.550Z,29.43
2018-09-03T16:23:29.090Z,24.77
2018-09-03T16:25:57.593Z,31.10
2018-09-03T16:28:26.080Z,26.57
2018-09-03T16:30:54.635Z,25.43
2018-09-03T16:33:23.475Z,50.17
2018-09-03T16:35:52.043Z,30.40
2018-09-03T16:38:20.514Z,46.53
2018-09-03T16:40:49.098Z,30.30
2018-09-03T16:43:17.585Z,27.33
2018-09-03T16:45:46.125Z,28.10
2018-09-03T16:48:14.654Z,26.90
2018-09-03T16:50:43.159Z,28.97
2018-09-03T16:53:11.662Z,26.57
2018-09-03T16:55:40.202Z,28.77
2018-09-03T16:58:08.924Z,25.23
2018-09-03T17:00:37.384Z,25.33
2018-09-03T17:03:05.902Z,23.23
2018-09-03T17:05:34.445Z,24.60
2018-09-03T17:08:03.123Z,22.07
2018-09-03T17:10:31.553Z,27.93
2018-09-03T17:13:00.076Z,20.47
2018-09-03T17:15:28.562Z,20.53
2018-09-03T17:17:57.181Z,22.53
2018-09-03T17:20:25.947Z,20.47
2018-09-03T17:22:54.356Z,24.23
2018-09-03T17:25:22.824Z,26.00
2018-09-03T17:27:51.525Z,22.13
2018-09-03T17:30:20.071Z,25.43
2018-09-03T17:32:48.557Z,22.23
2018-09-03T17:35:17.071Z,23.47
2018-09-03T17:37:45.551Z,26.20
2018-09-03T17:40:14.075Z,19.47
2018-09-03T17:42:42.558Z,26.83
2018-09-03T17:45:11.063Z,23.50
2018-09-03T17:47:40.407Z,19.97
2018-09-03T17:50:09.150Z,24.43
2018-09-03T17:52:37.665Z,25.90
2018-09-03T17:55:06.938Z,29.53
2018-09-03T17:57:35.490Z,19.23
2018-09-03T18:00:04.015Z,24.43
2018-09-03T18:02:32.494Z,24.57
2018-09-03T18:05:01.013Z,26.23
2018-09-03T18:07:29.476Z,23.37
2018-09-03T18:09:58.006Z,28.20
2018-09-03T18:12:26.491Z,21.13
2018-09-03T18:14:55.016Z,28.70
2018-09-03T18:17:23.474Z,23.17
2018-09-03T18:19:52.037Z,29.37
2018-09-03T18:22:20.496Z,23.20
2018-09-03T18:24:48.956Z,22.83
2018-09-03T18:27:17.465Z,24.53
2018-09-03T18:29:45.916Z,30.17
2018-09-03T18:32:14.388Z,32.80
2018-09-03T18:34:42.854Z,27.10
2018-09-03T18:37:11.372Z,26.37
2018-09-03T18:39:39.855Z,28.43
2018-09-03T18:42:07.978Z,30.63
2018-09-03T18:44:36.479Z,36.83
2018-09-03T18:47:05.016Z,34.80
2018-09-03T18:49:33.546Z,33.60
2018-09-03T18:52:02.134Z,41.20
2018-09-03T18:54:30.693Z,39.40
2018-09-03T18:56:59.179Z,35.90
2018-09-03T18:59:27.778Z,35.13
2018-09-03T19:01:56.465Z,31.60
2018-09-03T19:04:25.001Z,36.33
2018-09-03T19:06:53.531Z,34.83
2018-09-03T19:09:21.976Z,34.63
2018-09-03T19:11:50.495Z,36.43
2018-09-03T19:14:19.080Z,38.30
2018-09-03T19:16:47.579Z,33.07
2018-09-03T19:19:16.208Z,45.97
2018-09-03T19:21:44.736Z,36.10
2018-09-03T19:24:13.305Z,36.53
2018-09-03T19:26:41.809Z,33.57
2018-09-03T19:29:10.570Z,32.90
2018-09-03T19:31:39.470Z,41.77
2018-09-03T19:34:07.934Z,34.27
2018-09-03T19:36:36.374Z,40.30
2018-09-03T19:39:05.939Z,34.70
2018-09-03T19:41:34.748Z,31.37
2018-09-03T19:44:03.214Z,33.50
2018-09-03T19:46:31.868Z,28.10
2018-09-03T19:49:00.356Z,31.70
2018-09-03T19:51:29.217Z,34.03
2018-09-03T19:53:57.678Z,31.30
2018-09-03T19:56:26.164Z,28.20
2018-09-03T19:58:54.612Z,29.80
2018-09-03T20:01:23.311Z,28.90
2018-09-03T20:03:51.792Z,34.43
2018-09-03T20:06:20.256Z,30.43
2018-09-03T20:08:48.774Z,28.70
2018-09-03T20:11:17.248Z,36.73
2018-09-03T20:13:45.700Z,36.20
2018-09-03T20:16:14.180Z,34.33
2018-09-03T20:18:42.658Z,29.73
2018-09-03T20:21:11.411Z,33.90
2018-09-03T20:23:40.211Z,34.70
2018-09-03T20:26:08.664Z,32.93
2018-09-03T20:28:37.279Z,29.43
2018-09-03T20:31:06.071Z,31.03
2018-09-03T20:33:34.460Z,37.47
2018-09-03T20:36:03.072Z,32.37
2018-09-03T20:38:31.553Z,35.83
2018-09-03T20:41:00.037Z,30.17
2018-09-03T20:43:28.630Z,30.27
2018-09-03T20:45:57.131Z,32.60
2018-09-03T20:48:25.650Z,32.90
2018-09-03T20:50:54.092Z,34.40
2018-09-03T20:53:22.519Z,34.53
2018-09-03T20:55:51.169Z,40.17
2018-09-03T20:58:19.662Z,40.00
2018-09-03T21:00:48.138Z,31.53
2018-09-03T21:03:16.626Z,30.73
2018-09-03T21:05:45.175Z,33.57
2018-09-03T21:08:13.757Z,39.70
2018-09-03T21:10:42.240Z,33.83
2018-09-03T21:13:10.698Z,34.17
2018-09-03T21:15:39.280Z,39.27
2018-09-03T21:18:07.754Z,38.83
2018-09-03T21:20:36.270Z,29.33
2018-09-03T21:23:04.739Z,38.50
2018-09-03T21:25:33.208Z,35.17
2018-09-03T21:28:01.634Z,34.20
2018-09-03T21:30:30.094Z,34.80
2018-09-03T21:32:58.564Z,37.37
2018-09-03T21:35:27.021Z,32.80
2018-09-03T21:37:55.548Z,32.70
2018-09-03T21:40:24.054Z,27.00
2018-09-03T21:42:52.507Z,30.40
2018-09-03T21:45:20.969Z,32.40
2018-09-03T21:47:49.475Z,39.90
2018-09-03T21:50:18.165Z,30.70
2018-09-03T21:52:46.613Z,39.93
2018-09-03T21:55:15.117Z,32.53
2018-09-03T21:57:43.607Z,39.07
2018-09-03T22:00:12.409Z,37.63
2018-09-03T22:02:40.908Z,34.03
2018-09-03T22:05:09.381Z,38.10
2018-09-03T22:07:37.838Z,36.60
2018-09-03T22:10:06.357Z,31.53
2018-09-03T22:12:34.829Z,43.43
2018-09-03T22:15:03.302Z,41.27
2018-09-03T22:17:31.800Z,35.57
2018-09-03T22:20:00.259Z,37.87
2018-09-03T22:22:28.712Z,44.10
2018-09-03T22:24:57.206Z,43.23
2018-09-03T22:27:25.675Z,42.47
2018-09-03T22:29:54.126Z,45.10
2018-09-03T22:32:22.648Z,37.67
2018-09-03T22:34:51.246Z,47.13
2018-09-03T22:37:19.699Z,43.80
2018-09-03T22:39:48.323Z,36.93
2018-09-03T22:42:16.854Z,30.70
2018-09-03T22:44:45.303Z,46.47
2018-09-03T22:47:13.776Z,44.30
2018-09-03T22:49:42.321Z,40.67
2018-09-03T22:52:10.775Z,39.07
2018-09-03T22:54:39.232Z,37.20
2018-09-03T22:57:07.726Z,42.60
2018-09-03T22:59:36.167Z,42.90
2018-09-03T23:02:04.729Z,41.90
2018-09-03T23:04:33.336Z,41.27
2018-09-03T23:07:01.895Z,46.90
2018-09-03T23:09:30.497Z,36.50
2018-09-03T23:11:59.073Z,43.93
2018-09-03T23:14:27.521Z,40.37
2018-09-03T23:16:55.985Z,43.50
2018-09-03T23:19:24.471Z,41.50
2018-09-03T23:21:52.946Z,38.73
2018-09-03T23:24:21.486Z,44.00
2018-09-03T23:26:49.941Z,41.97
2018-09-03T23:29:18.514Z,56.37
2018-09-03T23:31:46.988Z,58.07
2018-09-03T23:34:15.429Z,55.50
2018-09-03T23:36:44.012Z,49.50
2018-09-03T23:39:12.459Z,45.90
2018-09-03T23:41:41.084Z,55.30
2018-09-03T23:44:09.579Z,52.47
2018-09-03T23:46:38.074Z,48.30
2018-09-03T23:49:06.536Z,40.33
2018-09-03T23:51:34.987Z,45.67
2018-09-03T23:54:03.462Z,53.10
2018-09-03T23:56:31.913Z,48.60
2018-09-03T23:59:00.457Z,54.33
